createdAt,value
2018-03-01T00:00:13.267Z,0
2018-03-01T00:00:39.378Z,0
2018-03-01T00:01:05.479Z,0
2018-03-01T00:01:31.577Z,0
2018-03-01T00:01:57.672Z,0
2018-03-01T00:02:23.772Z,0
2018-03-01T00:02:49.869Z,0
2018-03-01T00:03:15.979Z,0
2018-03-01T00:03:42.076Z,0
2018-03-01T00:04:08.167Z,0
2018-03-01T00:04:34.266Z,0
2018-03-01T00:05:00.380Z,0
2018-03-01T00:05:26.514Z,0
2018-03-01T00:05:52.619Z,0
2018-03-01T00:06:18.707Z,0
2018-03-01T00:06:44.799Z,0
2018-03-01T00:07:10.898Z,0
2018-03-01T00:07:36.997Z,0
2018-03-01T00:08:03.097Z,0
2018-03-01T00:08:29.192Z,0
2018-03-01T00:08:55.290Z,0
2018-03-01T00:09:21.383Z,0
2018-03-01T00:09:47.483Z,0
2018-03-01T00:10:13.577Z,0
2018-03-01T00:10:39.673Z,0
2018-03-01T00:11:05.772Z,0
2018-03-01T00:11:31.866Z,0
2018-03-01T00:11:57.966Z,0
2018-03-01T00:12:24.075Z,0
2018-03-01T00:12:50.179Z,0
2018-03-01T00:13:16.276Z,0
2018-03-01T00:13:42.373Z,0
2018-03-01T00:14:08.470Z,0
2018-03-01T00:14:34.573Z,0
2018-03-01T00:15:00.661Z,0
2018-03-01T00:15:26.753Z,0
2018-03-01T00:15:52.877Z,0
2018-03-01T00:16:18.971Z,0
2018-03-01T00:16:45.066Z,0
2018-03-01T00:17:11.179Z,0
2018-03-01T00:17:37.275Z,0
2018-03-01T00:18:03.369Z,0
2018-03-01T00:18:29.472Z,0
2018-03-01T00:18:55.578Z,0
2018-03-01T00:19:21.683Z,0
2018-03-01T00:19:47.784Z,0
2018-03-01T00:20:13.884Z,0
2018-03-01T00:20:39.982Z,0
2018-03-01T00:21:06.080Z,0
2018-03-01T00:21:32.179Z,0
2018-03-01T00:21:58.270Z,0
2018-03-01T00:22:24.430Z,0
2018-03-01T00:22:50.476Z,0
2018-03-01T00:23:16.578Z,0
2018-03-01T00:23:42.676Z,0
2018-03-01T00:24:08.768Z,0
2018-03-01T00:24:34.868Z,0
2018-03-01T00:25:00.977Z,0
2018-03-01T00:25:27.073Z,0
2018-03-01T00:25:53.175Z,0
2018-03-01T00:26:19.278Z,0
2018-03-01T00:26:45.384Z,0
2018-03-01T00:27:11.482Z,0
2018-03-01T00:27:37.573Z,0
2018-03-01T00:28:03.669Z,0
2018-03-01T00:28:29.764Z,0
2018-03-01T00:28:55.891Z,0
2018-03-01T00:29:21.990Z,0
2018-03-01T00:29:48.122Z,0
2018-03-01T00:30:14.230Z,0
2018-03-01T00:30:40.360Z,0
2018-03-01T00:31:06.475Z,0
2018-03-01T00:31:32.571Z,0
2018-03-01T00:31:58.665Z,0
2018-03-01T00:32:24.808Z,0
2018-03-01T00:32:50.867Z,0
2018-03-01T00:33:16.967Z,0
2018-03-01T00:33:43.058Z,0
2018-03-01T00:34:09.154Z,0
2018-03-01T00:34:35.251Z,0
2018-03-01T00:35:01.343Z,0
2018-03-01T00:35:27.443Z,0
2018-03-01T00:35:53.537Z,0
2018-03-01T00:36:19.629Z,0
2018-03-01T00:36:45.728Z,0
2018-03-01T00:37:11.819Z,0
2018-03-01T00:37:37.913Z,0
2018-03-01T00:38:04.013Z,0
2018-03-01T00:38:30.108Z,0
2018-03-01T00:38:56.209Z,0
2018-03-01T00:39:22.508Z,0
2018-03-01T00:39:48.600Z,0
2018-03-01T00:40:14.695Z,0
2018-03-01T00:40:40.793Z,0
2018-03-01T00:41:06.909Z,0
2018-03-01T00:41:33.000Z,0
2018-03-01T00:41:59.096Z,0
2018-03-01T00:42:25.189Z,0
2018-03-01T00:42:51.301Z,0
2018-03-01T00:43:17.400Z,0
2018-03-01T00:43:43.494Z,0
2018-03-01T00:44:09.595Z,0
2018-03-01T00:44:35.704Z,0
2018-03-01T00:45:01.800Z,0
2018-03-01T00:45:27.899Z,0
2018-03-01T00:45:53.986Z,0
2018-03-01T00:46:20.077Z,0
2018-03-01T00:46:46.179Z,0
2018-03-01T00:47:12.298Z,0
2018-03-01T00:47:38.392Z,0
2018-03-01T00:48:04.480Z,0
2018-03-01T00:48:30.587Z,0
2018-03-01T00:48:56.674Z,0
2018-03-01T00:49:22.772Z,0
2018-03-01T00:49:48.864Z,0
2018-03-01T00:50:14.957Z,0
2018-03-01T00:50:41.058Z,0
2018-03-01T00:51:07.169Z,0
2018-03-01T00:51:33.264Z,0
2018-03-01T00:51:59.365Z,0
2018-03-01T00:52:25.454Z,0
2018-03-01T00:52:51.556Z,0
2018-03-01T00:53:17.647Z,0
2018-03-01T00:53:43.748Z,0
2018-03-01T00:54:09.839Z,0
2018-03-01T00:54:35.938Z,0
2018-03-01T00:55:02.037Z,0
2018-03-01T00:55:28.145Z,0
2018-03-01T00:55:54.261Z,0
2018-03-01T00:56:20.350Z,0
2018-03-01T00:56:46.450Z,0
2018-03-01T00:57:12.560Z,0
2018-03-01T00:57:38.654Z,0
2018-03-01T00:58:04.753Z,0
2018-03-01T00:58:30.844Z,0
2018-03-01T00:58:56.963Z,0
2018-03-01T00:59:23.055Z,0
2018-03-01T00:59:49.154Z,0
2018-03-01T01:00:15.253Z,0
2018-03-01T01:00:41.362Z,0
2018-03-01T01:01:07.461Z,0
2018-03-01T01:01:33.560Z,0
2018-03-01T01:01:59.652Z,0
2018-03-01T01:02:25.754Z,0
2018-03-01T01:02:51.844Z,0
2018-03-01T01:03:17.957Z,0
2018-03-01T01:03:44.054Z,0
2018-03-01T01:04:10.142Z,0
2018-03-01T01:04:36.243Z,0
2018-03-01T01:05:02.332Z,0
2018-03-01T01:05:28.430Z,0
2018-03-01T01:05:54.555Z,0
2018-03-01T01:06:20.681Z,0
2018-03-01T01:06:46.798Z,0
2018-03-01T01:07:12.891Z,0
2018-03-01T01:07:38.990Z,0
2018-03-01T01:08:05.090Z,0
2018-03-01T01:08:31.183Z,0
2018-03-01T01:08:57.284Z,0
2018-03-01T01:09:23.380Z,0
2018-03-01T01:09:49.472Z,0
2018-03-01T01:10:15.569Z,0
2018-03-01T01:10:41.683Z,0
2018-03-01T01:11:07.791Z,0
2018-03-01T01:11:33.888Z,0
2018-03-01T01:11:59.988Z,0
2018-03-01T01:12:26.080Z,0
2018-03-01T01:12:52.191Z,0
2018-03-01T01:13:18.288Z,0
2018-03-01T01:13:44.384Z,0
2018-03-01T01:14:10.474Z,0
2018-03-01T01:14:36.574Z,0
2018-03-01T01:15:02.674Z,0
2018-03-01T01:15:28.765Z,0
2018-03-01T01:15:54.865Z,0
2018-03-01T01:16:20.960Z,0
2018-03-01T01:16:47.056Z,0
2018-03-01T01:17:13.148Z,0
2018-03-01T01:17:39.257Z,0
2018-03-01T01:18:05.340Z,0
2018-03-01T01:18:31.451Z,0
2018-03-01T01:18:57.549Z,0
2018-03-01T01:19:23.642Z,0
2018-03-01T01:19:49.737Z,0
2018-03-01T01:20:15.835Z,0
2018-03-01T01:20:41.928Z,0
2018-03-01T01:21:08.022Z,0
2018-03-01T01:21:34.120Z,0
2018-03-01T01:22:00.217Z,0
2018-03-01T01:22:26.308Z,0
2018-03-01T01:22:52.423Z,0
2018-03-01T01:23:18.513Z,0
2018-03-01T01:23:44.608Z,0
2018-03-01T01:24:10.704Z,0
2018-03-01T01:24:36.809Z,0
2018-03-01T01:25:02.904Z,0
2018-03-01T01:25:29.001Z,0
2018-03-01T01:25:55.097Z,0
2018-03-01T01:26:21.219Z,0
2018-03-01T01:26:47.442Z,0
2018-03-01T01:27:13.605Z,0
2018-03-01T01:27:39.695Z,0
2018-03-01T01:28:05.796Z,0
2018-03-01T01:28:31.892Z,0
2018-03-01T01:28:57.982Z,0
2018-03-01T01:29:24.085Z,0
2018-03-01T01:29:50.177Z,0
2018-03-01T01:30:16.272Z,0
2018-03-01T01:30:42.389Z,0
2018-03-01T01:31:08.487Z,0
2018-03-01T01:31:34.581Z,0
2018-03-01T01:32:00.694Z,0
2018-03-01T01:32:26.891Z,0
2018-03-01T01:32:52.973Z,0
2018-03-01T01:33:19.069Z,0
2018-03-01T01:33:45.163Z,0
2018-03-01T01:34:11.263Z,0
2018-03-01T01:34:37.361Z,0
2018-03-01T01:35:03.456Z,0
2018-03-01T01:35:29.573Z,0
2018-03-01T01:35:55.697Z,0
2018-03-01T01:36:22.127Z,0
2018-03-01T01:36:48.506Z,0
2018-03-01T01:37:14.650Z,0
2018-03-01T01:37:40.758Z,0
2018-03-01T01:38:06.863Z,0
2018-03-01T01:38:33.022Z,0
2018-03-01T01:38:59.123Z,0
2018-03-01T01:39:25.221Z,0
2018-03-01T01:39:51.311Z,0
2018-03-01T01:40:17.414Z,0
2018-03-01T01:40:43.506Z,0
2018-03-01T01:41:09.607Z,0
2018-03-01T01:41:35.701Z,0
2018-03-01T01:42:01.798Z,0
2018-03-01T01:42:27.958Z,0
2018-03-01T01:42:54.053Z,0
2018-03-01T01:43:20.154Z,0
2018-03-01T01:43:46.246Z,0
2018-03-01T01:44:12.347Z,0
2018-03-01T01:44:38.439Z,0
2018-03-01T01:45:04.539Z,0
2018-03-01T01:45:30.637Z,0
2018-03-01T01:45:56.725Z,0
2018-03-01T01:46:22.818Z,0
2018-03-01T01:46:48.923Z,0
2018-03-01T01:47:15.017Z,0
2018-03-01T01:47:41.115Z,0
2018-03-01T01:48:07.215Z,0
2018-03-01T01:48:33.514Z,0
2018-03-01T01:48:59.607Z,0
2018-03-01T01:49:25.721Z,0
2018-03-01T01:49:51.821Z,0
2018-03-01T01:50:17.915Z,0
2018-03-01T01:50:44.038Z,0
2018-03-01T01:51:10.136Z,0
2018-03-01T01:51:36.232Z,0
2018-03-01T01:52:02.346Z,0
2018-03-01T01:52:28.510Z,0
2018-03-01T01:52:54.631Z,0
2018-03-01T01:53:20.723Z,0
2018-03-01T01:53:46.824Z,0
2018-03-01T01:54:12.919Z,0
2018-03-01T01:54:39.013Z,0
2018-03-01T01:55:05.110Z,0
2018-03-01T01:55:31.208Z,0
2018-03-01T01:55:57.303Z,0
2018-03-01T01:56:23.397Z,0
2018-03-01T01:56:49.490Z,0
2018-03-01T01:57:15.612Z,0
2018-03-01T01:57:41.714Z,0
2018-03-01T01:58:07.809Z,0
2018-03-01T01:58:33.908Z,0
2018-03-01T01:59:00.009Z,0
2018-03-01T01:59:26.118Z,0
2018-03-01T01:59:52.211Z,0
2018-03-01T02:00:18.310Z,0
2018-03-01T02:00:44.421Z,0
2018-03-01T02:01:10.522Z,0
2018-03-01T02:01:36.618Z,0
2018-03-01T02:02:02.709Z,0
2018-03-01T02:02:28.808Z,0
2018-03-01T02:02:54.908Z,0
2018-03-01T02:03:21.001Z,0
2018-03-01T02:03:47.100Z,0
2018-03-01T02:04:13.216Z,0
2018-03-01T02:04:39.317Z,0
2018-03-01T02:05:05.409Z,0
2018-03-01T02:05:31.507Z,0
2018-03-01T02:05:57.599Z,0
2018-03-01T02:06:23.693Z,0
2018-03-01T02:06:49.795Z,0
2018-03-01T02:07:15.885Z,0
2018-03-01T02:07:41.980Z,0
2018-03-01T02:08:08.081Z,0
2018-03-01T02:08:34.176Z,0
2018-03-01T02:09:00.268Z,0
2018-03-01T02:09:26.371Z,0
2018-03-01T02:09:52.474Z,0
2018-03-01T02:10:18.560Z,0
2018-03-01T02:10:44.657Z,0
2018-03-01T02:11:10.757Z,0
2018-03-01T02:11:36.856Z,0
2018-03-01T02:12:02.948Z,0
2018-03-01T02:12:29.046Z,0
2018-03-01T02:12:55.145Z,0
2018-03-01T02:13:21.247Z,0
2018-03-01T02:13:47.340Z,0
2018-03-01T02:14:13.443Z,0
2018-03-01T02:14:39.538Z,0
2018-03-01T02:15:05.655Z,0
2018-03-01T02:15:31.750Z,0
2018-03-01T02:15:57.853Z,0
2018-03-01T02:16:23.942Z,0
2018-03-01T02:16:50.044Z,0
2018-03-01T02:17:16.137Z,0
2018-03-01T02:17:42.237Z,0
2018-03-01T02:18:08.331Z,0
2018-03-01T02:18:34.429Z,0
2018-03-01T02:19:00.525Z,0
2018-03-01T02:19:26.619Z,0
2018-03-01T02:19:52.719Z,0
2018-03-01T02:20:18.812Z,0
2018-03-01T02:20:44.917Z,0
2018-03-01T02:21:11.022Z,0
2018-03-01T02:21:37.117Z,0
2018-03-01T02:22:03.219Z,0
2018-03-01T02:22:29.331Z,0
2018-03-01T02:22:55.428Z,0
2018-03-01T02:23:21.527Z,0
2018-03-01T02:23:47.622Z,0
2018-03-01T02:24:13.724Z,0
2018-03-01T02:24:39.820Z,0
2018-03-01T02:25:05.913Z,0
2018-03-01T02:25:32.017Z,0
2018-03-01T02:25:58.108Z,0
2018-03-01T02:26:24.203Z,0
2018-03-01T02:26:50.304Z,0
2018-03-01T02:27:16.390Z,0
2018-03-01T02:27:42.493Z,0
2018-03-01T02:28:08.591Z,0
2018-03-01T02:28:34.692Z,0
2018-03-01T02:29:00.789Z,0
2018-03-01T02:29:26.886Z,0
2018-03-01T02:29:52.984Z,0
2018-03-01T02:30:19.090Z,0
2018-03-01T02:30:45.188Z,0
2018-03-01T02:31:11.280Z,0
2018-03-01T02:31:37.398Z,0
2018-03-01T02:32:03.505Z,0
2018-03-01T02:32:29.622Z,0
2018-03-01T02:32:55.700Z,0
2018-03-01T02:33:21.792Z,0
2018-03-01T02:33:47.892Z,0
2018-03-01T02:34:13.988Z,0
2018-03-01T02:34:40.081Z,0
2018-03-01T02:35:06.176Z,0
2018-03-01T02:35:32.279Z,0
2018-03-01T02:35:58.406Z,0
2018-03-01T02:36:24.502Z,0
2018-03-01T02:36:50.593Z,0
2018-03-01T02:37:16.712Z,0
2018-03-01T02:37:42.811Z,0
2018-03-01T02:38:08.904Z,0
2018-03-01T02:38:35.005Z,0
2018-03-01T02:39:01.097Z,0
2018-03-01T02:39:27.227Z,0
2018-03-01T02:39:53.325Z,0
2018-03-01T02:40:19.420Z,0
2018-03-01T02:40:45.544Z,0
2018-03-01T02:41:11.638Z,0
2018-03-01T02:41:37.727Z,0
2018-03-01T02:42:03.829Z,0
2018-03-01T02:42:29.924Z,0
2018-03-01T02:42:56.049Z,0
2018-03-01T02:43:22.148Z,0
2018-03-01T02:43:48.237Z,0
2018-03-01T02:44:14.333Z,0
2018-03-01T02:44:40.434Z,0
2018-03-01T02:45:06.544Z,0
2018-03-01T02:45:32.659Z,0
2018-03-01T02:45:58.755Z,0
2018-03-01T02:46:24.866Z,0
2018-03-01T02:46:50.966Z,0
2018-03-01T02:47:17.059Z,0
2018-03-01T02:47:43.154Z,0
2018-03-01T02:48:09.246Z,0
2018-03-01T02:48:35.356Z,0
2018-03-01T02:49:01.450Z,0
2018-03-01T02:49:27.546Z,0
2018-03-01T02:49:53.643Z,0
2018-03-01T02:50:19.740Z,0
2018-03-01T02:50:45.831Z,0
2018-03-01T02:51:11.926Z,0
2018-03-01T02:51:38.030Z,0
2018-03-01T02:52:04.125Z,0
2018-03-01T02:52:30.230Z,0
2018-03-01T02:52:56.324Z,0
2018-03-01T02:53:22.429Z,0
2018-03-01T02:53:48.518Z,0
2018-03-01T02:54:14.614Z,0
2018-03-01T02:54:40.713Z,0
2018-03-01T02:55:06.842Z,0
2018-03-01T02:55:32.937Z,0
2018-03-01T02:55:59.032Z,0
2018-03-01T02:56:25.133Z,0
2018-03-01T02:56:51.230Z,0
2018-03-01T02:57:17.321Z,0
2018-03-01T02:57:43.424Z,0
2018-03-01T02:58:09.514Z,0
2018-03-01T02:58:35.632Z,0
2018-03-01T02:59:01.727Z,0
2018-03-01T02:59:27.825Z,0
2018-03-01T02:59:53.923Z,0
2018-03-01T03:00:20.013Z,0
2018-03-01T03:00:46.107Z,0
2018-03-01T03:01:12.206Z,0
2018-03-01T03:01:38.323Z,0
2018-03-01T03:02:04.424Z,0
2018-03-01T03:02:30.518Z,0
2018-03-01T03:02:56.613Z,0
2018-03-01T03:03:22.712Z,0
2018-03-01T03:03:48.808Z,0
2018-03-01T03:04:14.907Z,0
2018-03-01T03:04:40.998Z,0
2018-03-01T03:05:07.096Z,0
2018-03-01T03:05:33.198Z,0
2018-03-01T03:05:59.291Z,0
2018-03-01T03:06:25.387Z,0
2018-03-01T03:06:51.479Z,0
2018-03-01T03:07:17.580Z,0
2018-03-01T03:07:43.694Z,0
2018-03-01T03:08:09.788Z,0
2018-03-01T03:08:35.886Z,0
2018-03-01T03:09:02.003Z,0
2018-03-01T03:09:28.105Z,0
2018-03-01T03:09:54.197Z,0
2018-03-01T03:10:20.299Z,0
2018-03-01T03:10:46.398Z,0
2018-03-01T03:11:12.494Z,0
2018-03-01T03:11:38.584Z,0
2018-03-01T03:12:04.676Z,0
2018-03-01T03:12:30.775Z,0
2018-03-01T03:12:56.882Z,0
2018-03-01T03:13:22.985Z,0
2018-03-01T03:13:49.101Z,0
2018-03-01T03:14:15.199Z,0
2018-03-01T03:14:41.293Z,0
2018-03-01T03:15:07.395Z,0
2018-03-01T03:15:33.484Z,0
2018-03-01T03:15:59.584Z,0
2018-03-01T03:16:25.676Z,0
2018-03-01T03:16:51.773Z,0
2018-03-01T03:17:17.874Z,0
2018-03-01T03:17:43.996Z,0
2018-03-01T03:18:10.081Z,0
2018-03-01T03:18:36.176Z,0
2018-03-01T03:19:02.275Z,0
2018-03-01T03:19:28.368Z,0
2018-03-01T03:19:54.486Z,0
2018-03-01T03:20:20.578Z,0
2018-03-01T03:20:46.678Z,0
2018-03-01T03:21:12.776Z,0
2018-03-01T03:21:38.869Z,0
2018-03-01T03:22:04.961Z,0
2018-03-01T03:22:31.062Z,0
2018-03-01T03:22:57.160Z,0
2018-03-01T03:23:23.252Z,0
2018-03-01T03:23:49.350Z,0
2018-03-01T03:24:15.452Z,0
2018-03-01T03:24:41.559Z,0
2018-03-01T03:25:07.716Z,0
2018-03-01T03:25:33.779Z,0
2018-03-01T03:25:59.880Z,0
2018-03-01T03:26:25.974Z,0
2018-03-01T03:26:52.076Z,0
2018-03-01T03:27:18.173Z,0
2018-03-01T03:27:44.268Z,0
2018-03-01T03:28:10.364Z,0
2018-03-01T03:28:36.470Z,0
2018-03-01T03:29:02.583Z,0
2018-03-01T03:29:28.679Z,0
2018-03-01T03:29:54.778Z,0
2018-03-01T03:30:20.868Z,0
2018-03-01T03:30:46.970Z,0
2018-03-01T03:31:13.063Z,0
2018-03-01T03:31:39.162Z,0
2018-03-01T03:32:05.257Z,0
2018-03-01T03:32:31.355Z,0
2018-03-01T03:32:57.467Z,0
2018-03-01T03:33:23.557Z,0
2018-03-01T03:33:49.682Z,0
2018-03-01T03:34:15.770Z,0
2018-03-01T03:34:41.866Z,0
2018-03-01T03:35:07.969Z,0
2018-03-01T03:35:34.078Z,0
2018-03-01T03:36:00.176Z,0
2018-03-01T03:36:26.278Z,0
2018-03-01T03:36:52.378Z,0
2018-03-01T03:37:18.467Z,0
2018-03-01T03:37:44.584Z,0
2018-03-01T03:38:10.681Z,0
2018-03-01T03:38:36.782Z,0
2018-03-01T03:39:02.875Z,0
2018-03-01T03:39:28.982Z,0
2018-03-01T03:39:55.083Z,0
2018-03-01T03:40:21.200Z,0
2018-03-01T03:40:47.314Z,0
2018-03-01T03:41:13.415Z,0
2018-03-01T03:41:39.507Z,0
2018-03-01T03:42:05.608Z,0
2018-03-01T03:42:31.700Z,0
2018-03-01T03:42:57.797Z,0
2018-03-01T03:43:23.896Z,0
2018-03-01T03:43:50.005Z,0
2018-03-01T03:44:16.107Z,0
2018-03-01T03:44:42.199Z,0
2018-03-01T03:45:08.301Z,0
2018-03-01T03:45:34.413Z,0
2018-03-01T03:46:00.548Z,0
2018-03-01T03:46:26.619Z,0
2018-03-01T03:46:52.716Z,0
2018-03-01T03:47:18.815Z,0
2018-03-01T03:47:44.905Z,0
2018-03-01T03:48:11.022Z,0
2018-03-01T03:48:37.131Z,0
2018-03-01T03:49:03.232Z,0
2018-03-01T03:49:29.327Z,0
2018-03-01T03:49:55.427Z,0
2018-03-01T03:50:21.540Z,0
2018-03-01T03:50:47.641Z,0
2018-03-01T03:51:13.727Z,0
2018-03-01T03:51:39.826Z,0
2018-03-01T03:52:05.919Z,0
2018-03-01T03:52:32.015Z,0
2018-03-01T03:52:58.111Z,0
2018-03-01T03:53:24.205Z,0
2018-03-01T03:53:50.300Z,0
2018-03-01T03:54:16.401Z,0
2018-03-01T03:54:42.494Z,0
2018-03-01T03:55:08.585Z,0
2018-03-01T03:55:34.678Z,0
2018-03-01T03:56:00.775Z,0
2018-03-01T03:56:26.878Z,0
2018-03-01T03:56:52.975Z,0
2018-03-01T03:57:19.069Z,0
2018-03-01T03:57:45.167Z,0
2018-03-01T03:58:11.264Z,0
2018-03-01T03:58:37.358Z,0
2018-03-01T03:59:03.477Z,0
2018-03-01T03:59:29.577Z,0
2018-03-01T03:59:55.673Z,0
2018-03-01T04:00:21.772Z,0
2018-03-01T04:00:47.868Z,0
2018-03-01T04:01:13.964Z,0
2018-03-01T04:01:40.055Z,0
2018-03-01T04:02:06.158Z,0
2018-03-01T04:02:32.280Z,0
2018-03-01T04:02:58.381Z,0
2018-03-01T04:03:24.476Z,0
2018-03-01T04:03:50.574Z,0
2018-03-01T04:04:16.669Z,0
2018-03-01T04:04:42.766Z,0
2018-03-01T04:05:08.873Z,0
2018-03-01T04:05:34.970Z,0
2018-03-01T04:06:01.082Z,0
2018-03-01T04:06:27.185Z,0
2018-03-01T04:06:53.281Z,0
2018-03-01T04:07:19.382Z,0
2018-03-01T04:07:45.475Z,0
2018-03-01T04:08:11.572Z,0
2018-03-01T04:08:37.664Z,0
2018-03-01T04:09:03.760Z,0
2018-03-01T04:09:29.858Z,0
2018-03-01T04:09:55.947Z,0
2018-03-01T04:10:22.069Z,0
2018-03-01T04:10:48.161Z,0
2018-03-01T04:11:14.264Z,0
2018-03-01T04:11:40.350Z,0
2018-03-01T04:12:06.451Z,0
2018-03-01T04:12:32.555Z,0
2018-03-01T04:12:58.653Z,0
2018-03-01T04:13:24.746Z,0
2018-03-01T04:13:50.860Z,0
2018-03-01T04:14:16.950Z,0
2018-03-01T04:14:43.048Z,0
2018-03-01T04:15:09.142Z,0
2018-03-01T04:15:35.245Z,0
2018-03-01T04:16:01.343Z,0
2018-03-01T04:16:27.434Z,0
2018-03-01T04:16:53.545Z,0
2018-03-01T04:17:19.647Z,0
2018-03-01T04:17:45.744Z,0
2018-03-01T04:18:11.841Z,0
2018-03-01T04:18:37.929Z,0
2018-03-01T04:19:04.046Z,0
2018-03-01T04:19:30.145Z,0
2018-03-01T04:19:56.266Z,0
2018-03-01T04:20:22.361Z,0
2018-03-01T04:20:48.455Z,0
2018-03-01T04:21:14.548Z,0
2018-03-01T04:21:40.660Z,0
2018-03-01T04:22:06.756Z,0
2018-03-01T04:22:32.851Z,0
2018-03-01T04:22:58.946Z,0
2018-03-01T04:23:25.048Z,0
2018-03-01T04:23:51.138Z,0
2018-03-01T04:24:17.241Z,0
2018-03-01T04:24:43.354Z,0
2018-03-01T04:25:09.453Z,0
2018-03-01T04:25:35.551Z,0
2018-03-01T04:26:01.647Z,0
2018-03-01T04:26:27.743Z,0
2018-03-01T04:26:53.846Z,0
2018-03-01T04:27:19.944Z,0
2018-03-01T04:27:46.041Z,0
2018-03-01T04:28:12.136Z,0
2018-03-01T04:28:38.231Z,0
2018-03-01T04:29:04.328Z,0
2018-03-01T04:29:30.421Z,0
2018-03-01T04:29:56.517Z,0
2018-03-01T04:30:22.617Z,0
2018-03-01T04:30:48.709Z,0
2018-03-01T04:31:14.807Z,0
2018-03-01T04:31:40.913Z,0
2018-03-01T04:32:06.999Z,0
2018-03-01T04:32:33.110Z,0
2018-03-01T04:32:59.200Z,0
2018-03-01T04:33:25.304Z,0
2018-03-01T04:33:51.404Z,0
2018-03-01T04:34:17.502Z,0
2018-03-01T04:34:43.592Z,0
2018-03-01T04:35:09.708Z,0
2018-03-01T04:35:35.803Z,0
2018-03-01T04:36:01.939Z,0
2018-03-01T04:36:27.998Z,0
2018-03-01T04:36:54.099Z,0
2018-03-01T04:37:20.192Z,0
2018-03-01T04:37:46.291Z,0
2018-03-01T04:38:12.388Z,0
2018-03-01T04:38:38.478Z,0
2018-03-01T04:39:04.593Z,0
2018-03-01T04:39:30.688Z,0
2018-03-01T04:39:56.783Z,0
2018-03-01T04:40:22.917Z,0
2018-03-01T04:40:49.010Z,0
2018-03-01T04:41:15.123Z,0
2018-03-01T04:41:41.222Z,0
2018-03-01T04:42:07.318Z,0
2018-03-01T04:42:33.413Z,0
2018-03-01T04:42:59.507Z,0
2018-03-01T04:43:25.613Z,0
2018-03-01T04:43:51.706Z,0
2018-03-01T04:44:17.808Z,0
2018-03-01T04:44:43.899Z,0
2018-03-01T04:45:09.998Z,0
2018-03-01T04:45:36.126Z,0
2018-03-01T04:46:02.234Z,0
2018-03-01T04:46:28.335Z,0
2018-03-01T04:46:54.430Z,0
2018-03-01T04:47:20.527Z,0
2018-03-01T04:47:46.620Z,0
2018-03-01T04:48:12.721Z,0
2018-03-01T04:48:38.811Z,0
2018-03-01T04:49:04.909Z,0
2018-03-01T04:49:31.007Z,0
2018-03-01T04:49:57.104Z,0
2018-03-01T04:50:23.197Z,0
2018-03-01T04:50:49.298Z,0
2018-03-01T04:51:15.393Z,0
2018-03-01T04:51:41.494Z,0
2018-03-01T04:52:07.605Z,0
2018-03-01T04:52:33.701Z,0
2018-03-01T04:52:59.801Z,0
2018-03-01T04:53:25.899Z,0
2018-03-01T04:53:51.990Z,0
2018-03-01T04:54:18.086Z,0
2018-03-01T04:54:44.203Z,0
2018-03-01T04:55:10.296Z,0
2018-03-01T04:55:36.392Z,0
2018-03-01T04:56:02.494Z,0
2018-03-01T04:56:28.622Z,0
2018-03-01T04:56:54.720Z,0
2018-03-01T04:57:20.816Z,0
2018-03-01T04:57:46.938Z,0
2018-03-01T04:58:13.032Z,0
2018-03-01T04:58:39.129Z,0
2018-03-01T04:59:05.219Z,0
2018-03-01T04:59:31.318Z,0
2018-03-01T04:59:57.415Z,0
2018-03-01T05:00:23.513Z,0
2018-03-01T05:00:49.613Z,0
2018-03-01T05:01:15.710Z,0
2018-03-01T05:01:41.802Z,0
2018-03-01T05:02:07.896Z,0
2018-03-01T05:02:33.998Z,0
2018-03-01T05:03:00.092Z,0
2018-03-01T05:03:26.189Z,0
2018-03-01T05:03:52.307Z,0
2018-03-01T05:04:18.397Z,0
2018-03-01T05:04:44.514Z,0
2018-03-01T05:05:10.625Z,0
2018-03-01T05:05:36.719Z,0
2018-03-01T05:06:02.816Z,0
2018-03-01T05:06:28.920Z,0
2018-03-01T05:06:55.016Z,0
2018-03-01T05:07:21.109Z,0
2018-03-01T05:07:47.211Z,0
2018-03-01T05:08:13.312Z,0
2018-03-01T05:08:39.406Z,0
2018-03-01T05:09:05.502Z,0
2018-03-01T05:09:31.594Z,0
2018-03-01T05:09:57.689Z,0
2018-03-01T05:10:23.793Z,0
2018-03-01T05:10:49.899Z,0
2018-03-01T05:11:15.999Z,0
2018-03-01T05:11:42.108Z,0
2018-03-01T05:12:08.207Z,0
2018-03-01T05:12:34.304Z,0
2018-03-01T05:13:00.402Z,0
2018-03-01T05:13:26.497Z,0
2018-03-01T05:13:52.591Z,0
2018-03-01T05:14:18.687Z,0
2018-03-01T05:14:44.788Z,0
2018-03-01T05:15:10.880Z,0
2018-03-01T05:15:36.981Z,0
2018-03-01T05:16:03.079Z,0
2018-03-01T05:16:29.172Z,0
2018-03-01T05:16:55.271Z,0
2018-03-01T05:17:21.383Z,0
2018-03-01T05:17:47.487Z,0
2018-03-01T05:18:13.575Z,0
2018-03-01T05:18:39.676Z,0
2018-03-01T05:19:05.768Z,0
2018-03-01T05:19:31.861Z,0
2018-03-01T05:19:57.956Z,0
2018-03-01T05:20:24.059Z,0
2018-03-01T05:20:50.150Z,0
2018-03-01T05:21:16.246Z,0
2018-03-01T05:21:42.363Z,0
2018-03-01T05:22:08.457Z,0
2018-03-01T05:22:34.561Z,0
2018-03-01T05:23:00.670Z,0
2018-03-01T05:23:26.768Z,0
2018-03-01T05:23:52.864Z,0
2018-03-01T05:24:18.982Z,0
2018-03-01T05:24:45.077Z,0
2018-03-01T05:25:11.179Z,0
2018-03-01T05:25:37.286Z,0
2018-03-01T05:26:03.387Z,0
2018-03-01T05:26:29.506Z,0
2018-03-01T05:26:55.596Z,0
2018-03-01T05:27:21.700Z,0
2018-03-01T05:27:47.792Z,0
2018-03-01T05:28:13.886Z,0
2018-03-01T05:28:39.984Z,0
2018-03-01T05:29:06.077Z,0
2018-03-01T05:29:32.177Z,0
2018-03-01T05:29:58.272Z,0
2018-03-01T05:30:24.370Z,0
2018-03-01T05:30:50.477Z,0
2018-03-01T05:31:16.612Z,0
2018-03-01T05:31:42.668Z,0
2018-03-01T05:32:08.781Z,0
2018-03-01T05:32:34.874Z,0
2018-03-01T05:33:00.966Z,0
2018-03-01T05:33:27.069Z,0
2018-03-01T05:33:53.193Z,0
2018-03-01T05:34:19.290Z,0
2018-03-01T05:34:45.386Z,0
2018-03-01T05:35:11.482Z,0
2018-03-01T05:35:37.572Z,0
2018-03-01T05:36:03.675Z,0
2018-03-01T05:36:29.783Z,0
2018-03-01T05:36:55.885Z,0
2018-03-01T05:37:22.006Z,0
2018-03-01T05:37:48.074Z,0
2018-03-01T05:38:14.174Z,0
2018-03-01T05:38:40.278Z,0
2018-03-01T05:39:06.369Z,0
2018-03-01T05:39:32.466Z,0
2018-03-01T05:39:58.559Z,0
2018-03-01T05:40:24.676Z,0
2018-03-01T05:40:50.769Z,0
2018-03-01T05:41:16.872Z,4
2018-03-01T05:41:42.964Z,4
2018-03-01T05:42:09.064Z,4
2018-03-01T05:42:35.158Z,0
2018-03-01T05:43:01.254Z,0
2018-03-01T05:43:27.353Z,0
2018-03-01T05:43:53.472Z,0
2018-03-01T05:44:19.569Z,0
2018-03-01T05:44:45.668Z,4
2018-03-01T05:45:11.762Z,4
2018-03-01T05:45:37.859Z,4
2018-03-01T05:46:03.974Z,0
2018-03-01T05:46:30.074Z,4
2018-03-01T05:46:56.182Z,4
2018-03-01T05:47:22.275Z,4
2018-03-01T05:47:48.374Z,0
2018-03-01T05:48:14.468Z,4
2018-03-01T05:48:40.566Z,4
2018-03-01T05:49:06.667Z,8
2018-03-01T05:49:32.763Z,4
2018-03-01T05:49:58.860Z,4
2018-03-01T05:50:24.950Z,8
2018-03-01T05:50:51.045Z,4
2018-03-01T05:51:17.163Z,8
2018-03-01T05:51:43.262Z,8
2018-03-01T05:52:09.356Z,8
2018-03-01T05:52:35.450Z,8
2018-03-01T05:53:01.546Z,8
2018-03-01T05:53:27.640Z,8
2018-03-01T05:53:53.736Z,12
2018-03-01T05:54:19.849Z,12
2018-03-01T05:54:45.951Z,12
2018-03-01T05:55:12.044Z,12
2018-03-01T05:55:38.142Z,12
2018-03-01T05:56:04.237Z,12
2018-03-01T05:56:30.337Z,16
2018-03-01T05:56:56.427Z,16
2018-03-01T05:57:22.522Z,16
2018-03-01T05:57:48.618Z,20
2018-03-01T05:58:14.719Z,20
2018-03-01T05:58:40.812Z,20
2018-03-01T05:59:06.905Z,20
2018-03-01T05:59:33.002Z,24
2018-03-01T05:59:59.102Z,24
2018-03-01T06:00:25.195Z,28
2018-03-01T06:00:51.297Z,32
2018-03-01T06:01:17.419Z,32
2018-03-01T06:01:43.537Z,32
2018-03-01T06:02:09.649Z,36
2018-03-01T06:02:35.787Z,36
2018-03-01T06:03:01.842Z,40
2018-03-01T06:03:27.934Z,44
2018-03-01T06:03:54.037Z,44
2018-03-01T06:04:20.128Z,48
2018-03-01T06:04:46.222Z,52
2018-03-01T06:05:12.325Z,56
2018-03-01T06:05:38.417Z,60
2018-03-01T06:06:04.517Z,60
2018-03-01T06:06:30.611Z,64
2018-03-01T06:06:56.710Z,64
2018-03-01T06:07:22.810Z,68
2018-03-01T06:07:48.921Z,76
2018-03-01T06:08:15.019Z,76
2018-03-01T06:08:41.110Z,84
2018-03-01T06:09:07.205Z,84
2018-03-01T06:09:33.303Z,88
2018-03-01T06:09:59.397Z,96
2018-03-01T06:10:25.499Z,100
2018-03-01T06:10:51.597Z,104
2018-03-01T06:11:17.690Z,112
2018-03-01T06:11:43.791Z,120
2018-03-01T06:12:09.883Z,124
2018-03-01T06:12:35.975Z,128
2018-03-01T06:13:02.081Z,136
2018-03-01T06:13:28.194Z,144
2018-03-01T06:13:54.289Z,148
2018-03-01T06:14:20.382Z,156
2018-03-01T06:14:46.483Z,164
2018-03-01T06:15:12.586Z,168
2018-03-01T06:15:38.683Z,176
2018-03-01T06:16:04.793Z,184
2018-03-01T06:16:30.884Z,192
2018-03-01T06:16:56.999Z,200
2018-03-01T06:17:23.121Z,212
2018-03-01T06:17:49.215Z,220
2018-03-01T06:18:15.912Z,232
2018-03-01T06:18:41.998Z,244
2018-03-01T06:19:08.085Z,252
2018-03-01T06:19:34.188Z,260
2018-03-01T06:20:00.285Z,268
2018-03-01T06:20:26.384Z,276
2018-03-01T06:20:52.484Z,284
2018-03-01T06:21:18.579Z,296
2018-03-01T06:21:44.670Z,300
2018-03-01T06:22:10.778Z,312
2018-03-01T06:22:36.877Z,324
2018-03-01T06:23:02.968Z,332
2018-03-01T06:23:29.060Z,344
2018-03-01T06:23:55.162Z,356
2018-03-01T06:24:21.259Z,368